sensor_id;sensor_type;location;lat;lon;timestamp;temperature;humidity
8420;DHT22;4247;48.550;8.822;2023-02-18T00:02:18;10.40;99.90
8420;DHT22;4247;48.550;8.822;2023-02-18T00:04:48;10.40;99.90
8420;DHT22;4247;48.550;8.822;2023-02-18T00:07:17;10.40;99.90
8420;DHT22;4247;48.550;8.822;2023-02-18T00:09:46;10.40;99.90
8420;DHT22;4247;48.550;8.822;2023-02-18T00:12:15;10.40;99.90
8420;DHT22;4247;48.550;8.822;2023-02-18T00:14:42;10.40;99.90
8420;DHT22;4247;48.550;8.822;2023-02-18T00:17:09;10.40;99.90
8420;DHT22;4247;48.550;8.822;2023-02-18T00:19:36;10.50;99.90
8420;DHT22;4247;48.550;8.822;2023-02-18T00:22:03;10.40;99.90
8420;DHT22;4247;48.550;8.822;2023-02-18T00:24:32;10.40;99.90
8420;DHT22;4247;48.550;8.822;2023-02-18T00:26:59;10.40;99.90
8420;DHT22;4247;48.550;8.822;2023-02-18T00:29:29;10.40;99.90
8420;DHT22;4247;48.550;8.822;2023-02-18T00:31:56;10.40;99.90
8420;DHT22;4247;48.550;8.822;2023-02-18T00:34:25;10.40;99.90
8420;DHT22;4247;48.550;8.822;2023-02-18T00:36:52;10.40;99.90
8420;DHT22;4247;48.550;8.822;2023-02-18T00:39:20;10.30;99.90
8420;DHT22;4247;48.550;8.822;2023-02-18T00:41:49;10.30;99.90
8420;DHT22;4247;48.550;8.822;2023-02-18T00:44:20;10.30;99.90
8420;DHT22;4247;48.550;8.822;2023-02-18T00:46:48;10.30;99.90
8420;DHT22;4247;48.550;8.822;2023-02-18T00:49:15;10.30;99.90
8420;DHT22;4247;48.550;8.822;2023-02-18T00:51:42;10.30;99.90
8420;DHT22;4247;48.550;8.822;2023-02-18T00:54:09;10.30;99.90
8420;DHT22;4247;48.550;8.822;2023-02-18T00:56:39;10.20;99.90
8420;DHT22;4247;48.550;8.822;2023-02-18T00:59:08;10.10;99.90
8420;DHT22;4247;48.550;8.822;2023-02-18T01:01:39;10.10;99.90
8420;DHT22;4247;48.550;8.822;2023-02-18T01:04:06;10.10;99.90
8420;DHT22;4247;48.550;8.822;2023-02-18T01:06:33;10.00;99.90
8420;DHT22;4247;48.550;8.822;2023-02-18T01:09:00;10.00;99.90
8420;DHT22;4247;48.550;8.822;2023-02-18T01:11:27;10.00;99.90
8420;DHT22;4247;48.550;8.822;2023-02-18T01:13:54;10.00;99.90
8420;DHT22;4247;48.550;8.822;2023-02-18T01:16:22;10.00;99.90
8420;DHT22;4247;48.550;8.822;2023-02-18T01:18:49;10.00;99.90
8420;DHT22;4247;48.550;8.822;2023-02-18T01:21:19;10.00;99.90
8420;DHT22;4247;48.550;8.822;2023-02-18T01:23:46;9.90;99.90
8420;DHT22;4247;48.550;8.822;2023-02-18T01:26:13;9.90;99.90
8420;DHT22;4247;48.550;8.822;2023-02-18T01:28:40;9.90;99.90
8420;DHT22;4247;48.550;8.822;2023-02-18T01:31:10;9.80;99.90
8420;DHT22;4247;48.550;8.822;2023-02-18T01:33:39;9.90;99.90
8420;DHT22;4247;48.550;8.822;2023-02-18T01:36:07;9.80;99.90
8420;DHT22;4247;48.550;8.822;2023-02-18T01:38:36;9.70;99.90
8420;DHT22;4247;48.550;8.822;2023-02-18T01:41:04;9.70;99.90
8420;DHT22;4247;48.550;8.822;2023-02-18T01:43:31;9.70;99.90
8420;DHT22;4247;48.550;8.822;2023-02-18T01:46:04;9.60;99.90
8420;DHT22;4247;48.550;8.822;2023-02-18T01:48:34;9.50;99.90
8420;DHT22;4247;48.550;8.822;2023-02-18T01:51:07;9.50;99.90
8420;DHT22;4247;48.550;8.822;2023-02-18T01:53:43;9.40;99.90
8420;DHT22;4247;48.550;8.822;2023-02-18T01:56:15;9.30;99.90
8420;DHT22;4247;48.550;8.822;2023-02-18T01:58:45;9.30;99.90
8420;DHT22;4247;48.550;8.822;2023-02-18T02:01:16;9.20;99.90
8420;DHT22;4247;48.550;8.822;2023-02-18T02:03:43;9.20;99.90
8420;DHT22;4247;48.550;8.822;2023-02-18T02:06:16;9.10;99.90
8420;DHT22;4247;48.550;8.822;2023-02-18T02:08:43;9.10;99.90
8420;DHT22;4247;48.550;8.822;2023-02-18T02:11:20;9.00;99.90
8420;DHT22;4247;48.550;8.822;2023-02-18T02:14:03;9.10;99.90
8420;DHT22;4247;48.550;8.822;2023-02-18T02:16:39;9.10;99.90
8420;DHT22;4247;48.550;8.822;2023-02-18T02:19:28;9.00;99.90
8420;DHT22;4247;48.550;8.822;2023-02-18T02:25:19;9.10;99.90
8420;DHT22;4247;48.550;8.822;2023-02-18T02:31:13;9.10;99.90
8420;DHT22;4247;48.550;8.822;2023-02-18T02:36:38;9.10;99.90
8420;DHT22;4247;48.550;8.822;2023-02-18T02:39:11;9.20;99.90
8420;DHT22;4247;48.550;8.822;2023-02-18T02:41:47;9.20;99.90
8420;DHT22;4247;48.550;8.822;2023-02-18T02:44:20;9.30;99.90
8420;DHT22;4247;48.550;8.822;2023-02-18T02:46:51;9.30;99.90
8420;DHT22;4247;48.550;8.822;2023-02-18T02:49:27;9.30;99.90
8420;DHT22;4247;48.550;8.822;2023-02-18T02:52:02;9.40;99.90
8420;DHT22;4247;48.550;8.822;2023-02-18T02:54:33;9.40;99.90
8420;DHT22;4247;48.550;8.822;2023-02-18T02:57:36;9.40;99.90
8420;DHT22;4247;48.550;8.822;2023-02-18T02:59:59;9.40;99.90
8420;DHT22;4247;48.550;8.822;2023-02-18T03:02:36;9.40;99.90
8420;DHT22;4247;48.550;8.822;2023-02-18T03:05:14;9.40;99.90
8420;DHT22;4247;48.550;8.822;2023-02-18T03:08:24;9.40;99.90
8420;DHT22;4247;48.550;8.822;2023-02-18T03:11:03;9.50;99.90
8420;DHT22;4247;48.550;8.822;2023-02-18T03:13:42;9.50;99.90
8420;DHT22;4247;48.550;8.822;2023-02-18T03:16:23;9.50;99.90
8420;DHT22;4247;48.550;8.822;2023-02-18T03:19:02;9.50;99.90
8420;DHT22;4247;48.550;8.822;2023-02-18T03:21:35;9.50;99.90
8420;DHT22;4247;48.550;8.822;2023-02-18T03:24:10;9.60;99.90
8420;DHT22;4247;48.550;8.822;2023-02-18T03:26:43;9.50;99.90
8420;DHT22;4247;48.550;8.822;2023-02-18T03:29:15;9.60;99.90
8420;DHT22;4247;48.550;8.822;2023-02-18T03:31:51;9.50;99.90
8420;DHT22;4247;48.550;8.822;2023-02-18T03:34:27;9.50;99.90
8420;DHT22;4247;48.550;8.822;2023-02-18T03:36:58;9.40;99.90
8420;DHT22;4247;48.550;8.822;2023-02-18T03:39:27;9.30;99.90
8420;DHT22;4247;48.550;8.822;2023-02-18T03:41:57;9.30;99.90
8420;DHT22;4247;48.550;8.822;2023-02-18T03:44:25;9.20;99.90
8420;DHT22;4247;48.550;8.822;2023-02-18T03:46:53;9.20;99.90
8420;DHT22;4247;48.550;8.822;2023-02-18T03:49:20;9.00;99.90
8420;DHT22;4247;48.550;8.822;2023-02-18T03:51:48;9.00;99.90
8420;DHT22;4247;48.550;8.822;2023-02-18T03:54:18;8.90;99.90
8420;DHT22;4247;48.550;8.822;2023-02-18T03:56:45;8.90;99.90
8420;DHT22;4247;48.550;8.822;2023-02-18T03:59:12;8.80;99.90
8420;DHT22;4247;48.550;8.822;2023-02-18T04:01:39;8.80;99.90
8420;DHT22;4247;48.550;8.822;2023-02-18T04:04:08;8.80;99.90
8420;DHT22;4247;48.550;8.822;2023-02-18T04:06:38;8.70;99.90
8420;DHT22;4247;48.550;8.822;2023-02-18T04:09:05;8.70;99.90
8420;DHT22;4247;48.550;8.822;2023-02-18T04:11:35;8.60;99.90
8420;DHT22;4247;48.550;8.822;2023-02-18T04:14:03;8.60;99.90
8420;DHT22;4247;48.550;8.822;2023-02-18T04:16:30;8.50;99.90
8420;DHT22;4247;48.550;8.822;2023-02-18T04:18:57;8.50;99.90
8420;DHT22;4247;48.550;8.822;2023-02-18T04:21:25;8.50;99.90
8420;DHT22;4247;48.550;8.822;2023-02-18T04:23:55;8.50;99.90
8420;DHT22;4247;48.550;8.822;2023-02-18T04:26:23;8.40;99.90
8420;DHT22;4247;48.550;8.822;2023-02-18T04:28:50;8.40;99.90
8420;DHT22;4247;48.550;8.822;2023-02-18T04:31:17;8.40;99.90
8420;DHT22;4247;48.550;8.822;2023-02-18T04:33:45;8.40;99.90
8420;DHT22;4247;48.550;8.822;2023-02-18T04:36:14;8.30;99.90
8420;DHT22;4247;48.550;8.822;2023-02-18T04:38:45;8.30;99.90
8420;DHT22;4247;48.550;8.822;2023-02-18T04:41:14;8.30;99.90
8420;DHT22;4247;48.550;8.822;2023-02-18T04:43:41;8.30;99.90
8420;DHT22;4247;48.550;8.822;2023-02-18T04:46:08;8.30;99.90
8420;DHT22;4247;48.550;8.822;2023-02-18T04:48:35;8.30;99.90
8420;DHT22;4247;48.550;8.822;2023-02-18T04:51:05;8.30;99.90
8420;DHT22;4247;48.550;8.822;2023-02-18T04:53:33;8.30;99.90
8420;DHT22;4247;48.550;8.822;2023-02-18T04:56:04;8.40;99.90
8420;DHT22;4247;48.550;8.822;2023-02-18T04:58:31;8.30;99.90
8420;DHT22;4247;48.550;8.822;2023-02-18T05:01:02;8.40;99.90
8420;DHT22;4247;48.550;8.822;2023-02-18T05:03:33;8.40;99.90
8420;DHT22;4247;48.550;8.822;2023-02-18T05:06:00;8.40;99.90
8420;DHT22;4247;48.550;8.822;2023-02-18T05:08:28;8.40;99.90
8420;DHT22;4247;48.550;8.822;2023-02-18T05:10:55;8.40;99.90
8420;DHT22;4247;48.550;8.822;2023-02-18T05:13:24;8.40;99.90
8420;DHT22;4247;48.550;8.822;2023-02-18T05:15:54;8.50;99.90
8420;DHT22;4247;48.550;8.822;2023-02-18T05:18:21;8.60;99.90
8420;DHT22;4247;48.550;8.822;2023-02-18T05:20:48;8.60;99.90
8420;DHT22;4247;48.550;8.822;2023-02-18T05:23:15;8.60;99.90
8420;DHT22;4247;48.550;8.822;2023-02-18T05:25:44;8.70;99.90
8420;DHT22;4247;48.550;8.822;2023-02-18T05:28:15;8.70;99.90
8420;DHT22;4247;48.550;8.822;2023-02-18T05:30:46;8.70;99.90
8420;DHT22;4247;48.550;8.822;2023-02-18T05:33:14;8.80;99.90
8420;DHT22;4247;48.550;8.822;2023-02-18T05:35:42;8.90;99.90
8420;DHT22;4247;48.550;8.822;2023-02-18T05:38:10;8.90;99.90
8420;DHT22;4247;48.550;8.822;2023-02-18T05:40:37;8.90;99.90
8420;DHT22;4247;48.550;8.822;2023-02-18T05:43:04;9.00;99.90
8420;DHT22;4247;48.550;8.822;2023-02-18T05:45:31;9.00;99.90
8420;DHT22;4247;48.550;8.822;2023-02-18T05:48:01;9.00;99.90
8420;DHT22;4247;48.550;8.822;2023-02-18T05:50:28;9.00;99.90
8420;DHT22;4247;48.550;8.822;2023-02-18T05:52:55;9.00;99.90
8420;DHT22;4247;48.550;8.822;2023-02-18T05:55:24;9.00;99.90
8420;DHT22;4247;48.550;8.822;2023-02-18T05:57:51;9.00;99.90
8420;DHT22;4247;48.550;8.822;2023-02-18T06:00:19;9.10;99.90
8420;DHT22;4247;48.550;8.822;2023-02-18T06:02:46;9.00;99.90
8420;DHT22;4247;48.550;8.822;2023-02-18T06:05:15;9.10;99.90
8420;DHT22;4247;48.550;8.822;2023-02-18T06:07:45;9.10;99.90
8420;DHT22;4247;48.550;8.822;2023-02-18T06:10:12;9.10;99.90
8420;DHT22;4247;48.550;8.822;2023-02-18T06:12:44;9.10;99.90
8420;DHT22;4247;48.550;8.822;2023-02-18T06:15:10;9.10;99.90
8420;DHT22;4247;48.550;8.822;2023-02-18T06:17:37;9.10;99.90
8420;DHT22;4247;48.550;8.822;2023-02-18T06:20:05;9.10;99.90
8420;DHT22;4247;48.550;8.822;2023-02-18T06:22:37;9.10;99.90
8420;DHT22;4247;48.550;8.822;2023-02-18T06:25:09;9.10;99.90
8420;DHT22;4247;48.550;8.822;2023-02-18T06:27:36;9.10;99.90
8420;DHT22;4247;48.550;8.822;2023-02-18T06:30:04;9.10;99.90
8420;DHT22;4247;48.550;8.822;2023-02-18T06:32:31;9.20;99.90
8420;DHT22;4247;48.550;8.822;2023-02-18T06:34:58;9.20;99.90
8420;DHT22;4247;48.550;8.822;2023-02-18T06:37:29;9.20;99.90
8420;DHT22;4247;48.550;8.822;2023-02-18T06:39:58;9.30;99.90
8420;DHT22;4247;48.550;8.822;2023-02-18T06:42:27;9.30;99.90
8420;DHT22;4247;48.550;8.822;2023-02-18T06:44:54;9.30;99.90
8420;DHT22;4247;48.550;8.822;2023-02-18T06:47:21;9.30;99.90
8420;DHT22;4247;48.550;8.822;2023-02-18T06:49:48;9.40;99.90
8420;DHT22;4247;48.550;8.822;2023-02-18T06:52:15;9.40;99.90
8420;DHT22;4247;48.550;8.822;2023-02-18T06:54:42;9.40;99.90
8420;DHT22;4247;48.550;8.822;2023-02-18T06:57:11;9.50;99.90
8420;DHT22;4247;48.550;8.822;2023-02-18T06:59:38;9.50;99.90
8420;DHT22;4247;48.550;8.822;2023-02-18T07:02:10;9.50;99.90
8420;DHT22;4247;48.550;8.822;2023-02-18T07:04:42;9.50;99.90
8420;DHT22;4247;48.550;8.822;2023-02-18T07:07:10;9.60;99.90
8420;DHT22;4247;48.550;8.822;2023-02-18T07:09:40;9.70;99.90
8420;DHT22;4247;48.550;8.822;2023-02-18T07:12:07;9.70;99.90
8420;DHT22;4247;48.550;8.822;2023-02-18T07:14:36;9.70;99.90
8420;DHT22;4247;48.550;8.822;2023-02-18T07:17:03;9.70;99.90
8420;DHT22;4247;48.550;8.822;2023-02-18T07:19:33;9.80;99.90
8420;DHT22;4247;48.550;8.822;2023-02-18T07:22:01;9.80;99.90
8420;DHT22;4247;48.550;8.822;2023-02-18T07:24:28;9.80;99.90
8420;DHT22;4247;48.550;8.822;2023-02-18T07:26:55;9.80;99.90
8420;DHT22;4247;48.550;8.822;2023-02-18T07:29:22;9.90;99.90
8420;DHT22;4247;48.550;8.822;2023-02-18T07:31:53;9.90;99.90
8420;DHT22;4247;48.550;8.822;2023-02-18T07:34:20;9.90;99.90
8420;DHT22;4247;48.550;8.822;2023-02-18T07:36:47;9.90;99.90
8420;DHT22;4247;48.550;8.822;2023-02-18T07:39:14;9.90;99.90
8420;DHT22;4247;48.550;8.822;2023-02-18T07:41:45;9.90;99.90
8420;DHT22;4247;48.550;8.822;2023-02-18T07:44:12;10.00;99.90
8420;DHT22;4247;48.550;8.822;2023-02-18T07:46:39;10.00;99.90
8420;DHT22;4247;48.550;8.822;2023-02-18T07:49:08;10.10;99.90
8420;DHT22;4247;48.550;8.822;2023-02-18T07:51:35;10.10;99.90
8420;DHT22;4247;48.550;8.822;2023-02-18T07:54:04;10.20;99.90
8420;DHT22;4247;48.550;8.822;2023-02-18T07:56:32;10.20;99.90
8420;DHT22;4247;48.550;8.822;2023-02-18T07:59:00;10.30;99.90
8420;DHT22;4247;48.550;8.822;2023-02-18T08:01:29;10.30;99.90
8420;DHT22;4247;48.550;8.822;2023-02-18T08:03:56;10.30;99.90
8420;DHT22;4247;48.550;8.822;2023-02-18T08:06:32;10.30;99.90
8420;DHT22;4247;48.550;8.822;2023-02-18T08:09:01;10.40;99.90
8420;DHT22;4247;48.550;8.822;2023-02-18T08:11:28;10.40;99.90
8420;DHT22;4247;48.550;8.822;2023-02-18T08:13:58;10.40;99.90
8420;DHT22;4247;48.550;8.822;2023-02-18T08:16:26;10.40;99.90
8420;DHT22;4247;48.550;8.822;2023-02-18T08:19:02;10.50;99.90
8420;DHT22;4247;48.550;8.822;2023-02-18T08:21:31;10.50;99.90
8420;DHT22;4247;48.550;8.822;2023-02-18T08:24:01;10.50;99.90
8420;DHT22;4247;48.550;8.822;2023-02-18T08:26:28;10.50;99.90
8420;DHT22;4247;48.550;8.822;2023-02-18T08:28:55;10.60;99.90
8420;DHT22;4247;48.550;8.822;2023-02-18T08:31:24;10.60;99.90
8420;DHT22;4247;48.550;8.822;2023-02-18T08:33:52;10.60;99.90
8420;DHT22;4247;48.550;8.822;2023-02-18T08:36:21;10.60;99.90
8420;DHT22;4247;48.550;8.822;2023-02-18T08:38:50;10.70;99.90
8420;DHT22;4247;48.550;8.822;2023-02-18T08:41:18;10.70;99.90
8420;DHT22;4247;48.550;8.822;2023-02-18T08:43:46;10.70;99.90
8420;DHT22;4247;48.550;8.822;2023-02-18T08:46:15;10.70;99.90
8420;DHT22;4247;48.550;8.822;2023-02-18T08:48:42;10.80;99.90
8420;DHT22;4247;48.550;8.822;2023-02-18T08:51:15;10.80;99.90
8420;DHT22;4247;48.550;8.822;2023-02-18T08:53:42;10.90;99.90
8420;DHT22;4247;48.550;8.822;2023-02-18T08:56:13;10.90;99.90
8420;DHT22;4247;48.550;8.822;2023-02-18T08:58:41;10.90;99.90
8420;DHT22;4247;48.550;8.822;2023-02-18T09:01:10;10.90;99.90
8420;DHT22;4247;48.550;8.822;2023-02-18T09:03:41;10.90;99.90
8420;DHT22;4247;48.550;8.822;2023-02-18T09:06:08;10.90;99.90
8420;DHT22;4247;48.550;8.822;2023-02-18T09:08:36;10.90;99.90
8420;DHT22;4247;48.550;8.822;2023-02-18T09:11:04;11.00;99.90
8420;DHT22;4247;48.550;8.822;2023-02-18T09:13:34;11.00;99.90
8420;DHT22;4247;48.550;8.822;2023-02-18T09:16:02;11.00;99.90
8420;DHT22;4247;48.550;8.822;2023-02-18T09:18:32;11.00;99.90
8420;DHT22;4247;48.550;8.822;2023-02-18T09:21:10;11.00;99.90
8420;DHT22;4247;48.550;8.822;2023-02-18T09:23:40;11.00;99.90
8420;DHT22;4247;48.550;8.822;2023-02-18T09:26:13;11.10;99.90
8420;DHT22;4247;48.550;8.822;2023-02-18T09:28:44;11.10;99.90
8420;DHT22;4247;48.550;8.822;2023-02-18T09:31:16;11.10;99.90
8420;DHT22;4247;48.550;8.822;2023-02-18T09:33:45;11.20;99.90
8420;DHT22;4247;48.550;8.822;2023-02-18T09:36:13;11.20;99.90
8420;DHT22;4247;48.550;8.822;2023-02-18T09:38:40;11.30;99.90
8420;DHT22;4247;48.550;8.822;2023-02-18T09:41:14;11.30;99.90
8420;DHT22;4247;48.550;8.822;2023-02-18T09:43:47;11.30;99.90
8420;DHT22;4247;48.550;8.822;2023-02-18T09:46:19;11.30;99.90
8420;DHT22;4247;48.550;8.822;2023-02-18T09:48:49;11.30;99.90
8420;DHT22;4247;48.550;8.822;2023-02-18T09:51:17;11.30;99.90
8420;DHT22;4247;48.550;8.822;2023-02-18T09:53:45;11.30;99.90
8420;DHT22;4247;48.550;8.822;2023-02-18T09:56:27;11.30;99.90
8420;DHT22;4247;48.550;8.822;2023-02-18T09:58:57;11.40;99.90
8420;DHT22;4247;48.550;8.822;2023-02-18T10:01:31;11.40;99.90
8420;DHT22;4247;48.550;8.822;2023-02-18T10:04:05;11.40;99.90
8420;DHT22;4247;48.550;8.822;2023-02-18T10:06:35;11.50;99.90
8420;DHT22;4247;48.550;8.822;2023-02-18T10:09:05;11.50;99.90
8420;DHT22;4247;48.550;8.822;2023-02-18T10:11:42;11.50;99.90
8420;DHT22;4247;48.550;8.822;2023-02-18T10:14:21;11.60;99.90
8420;DHT22;4247;48.550;8.822;2023-02-18T10:17:23;11.60;99.90
8420;DHT22;4247;48.550;8.822;2023-02-18T10:19:59;11.60;99.90
8420;DHT22;4247;48.550;8.822;2023-02-18T10:22:27;11.50;99.90
8420;DHT22;4247;48.550;8.822;2023-02-18T10:24:57;11.50;99.90
8420;DHT22;4247;48.550;8.822;2023-02-18T10:27:26;11.60;99.90
8420;DHT22;4247;48.550;8.822;2023-02-18T10:30:01;11.60;99.90
8420;DHT22;4247;48.550;8.822;2023-02-18T10:32:34;11.60;99.90
8420;DHT22;4247;48.550;8.822;2023-02-18T10:35:14;11.70;99.90
8420;DHT22;4247;48.550;8.822;2023-02-18T10:37:54;11.70;99.90
8420;DHT22;4247;48.550;8.822;2023-02-18T10:40:28;11.60;99.90
8420;DHT22;4247;48.550;8.822;2023-02-18T10:43:08;11.70;99.90
8420;DHT22;4247;48.550;8.822;2023-02-18T10:45:50;11.70;99.90
8420;DHT22;4247;48.550;8.822;2023-02-18T10:51:22;11.70;99.90
8420;DHT22;4247;48.550;8.822;2023-02-18T10:53:52;11.70;99.90
8420;DHT22;4247;48.550;8.822;2023-02-18T10:56:38;11.70;99.90
8420;DHT22;4247;48.550;8.822;2023-02-18T10:59:12;11.70;99.90
8420;DHT22;4247;48.550;8.822;2023-02-18T11:01:44;11.80;99.90
8420;DHT22;4247;48.550;8.822;2023-02-18T11:04:16;11.80;99.90
8420;DHT22;4247;48.550;8.822;2023-02-18T11:06:50;11.80;99.90
8420;DHT22;4247;48.550;8.822;2023-02-18T11:09:30;11.80;99.90
8420;DHT22;4247;48.550;8.822;2023-02-18T11:12:05;11.90;99.90
8420;DHT22;4247;48.550;8.822;2023-02-18T11:14:40;11.90;99.90
8420;DHT22;4247;48.550;8.822;2023-02-18T11:17:16;11.90;99.90
8420;DHT22;4247;48.550;8.822;2023-02-18T11:19:51;12.00;99.90
8420;DHT22;4247;48.550;8.822;2023-02-18T11:22:22;12.00;99.90
8420;DHT22;4247;48.550;8.822;2023-02-18T11:24:54;12.10;99.90
8420;DHT22;4247;48.550;8.822;2023-02-18T11:27:25;12.00;99.90
8420;DHT22;4247;48.550;8.822;2023-02-18T11:29:58;12.10;99.90
8420;DHT22;4247;48.550;8.822;2023-02-18T11:32:28;12.10;99.90
8420;DHT22;4247;48.550;8.822;2023-02-18T11:34:58;12.00;99.90
8420;DHT22;4247;48.550;8.822;2023-02-18T11:37:25;12.00;99.90
8420;DHT22;4247;48.550;8.822;2023-02-18T11:39:53;12.00;99.90
8420;DHT22;4247;48.550;8.822;2023-02-18T11:42:24;11.90;99.90
8420;DHT22;4247;48.550;8.822;2023-02-18T11:44:53;11.90;99.90
8420;DHT22;4247;48.550;8.822;2023-02-18T11:47:30;11.90;99.90
8420;DHT22;4247;48.550;8.822;2023-02-18T11:50:03;11.90;99.90
8420;DHT22;4247;48.550;8.822;2023-02-18T11:52:39;11.90;99.90
8420;DHT22;4247;48.550;8.822;2023-02-18T11:55:13;11.90;99.90
8420;DHT22;4247;48.550;8.822;2023-02-18T11:57:43;11.90;99.90
8420;DHT22;4247;48.550;8.822;2023-02-18T12:00:19;12.00;99.90
8420;DHT22;4247;48.550;8.822;2023-02-18T12:08:46;12.10;99.90
8420;DHT22;4247;48.550;8.822;2023-02-18T12:11:24;12.20;99.90
8420;DHT22;4247;48.550;8.822;2023-02-18T12:13:55;12.40;99.90
8420;DHT22;4247;48.550;8.822;2023-02-18T12:16:31;12.50;99.90
8420;DHT22;4247;48.550;8.822;2023-02-18T12:19:32;12.60;99.90
8420;DHT22;4247;48.550;8.822;2023-02-18T12:22:11;12.70;99.90
8420;DHT22;4247;48.550;8.822;2023-02-18T12:24:55;12.80;99.90
8420;DHT22;4247;48.550;8.822;2023-02-18T12:27:30;13.00;99.90
8420;DHT22;4247;48.550;8.822;2023-02-18T12:30:22;13.10;99.90
8420;DHT22;4247;48.550;8.822;2023-02-18T12:32:55;13.20;99.90
8420;DHT22;4247;48.550;8.822;2023-02-18T12:35:39;13.20;99.90
8420;DHT22;4247;48.550;8.822;2023-02-18T12:38:35;13.30;99.90
8420;DHT22;4247;48.550;8.822;2023-02-18T12:41:16;13.30;99.90
8420;DHT22;4247;48.550;8.822;2023-02-18T12:43:54;13.30;99.90
8420;DHT22;4247;48.550;8.822;2023-02-18T12:46:36;13.30;99.90
8420;DHT22;4247;48.550;8.822;2023-02-18T12:49:20;13.30;99.90
8420;DHT22;4247;48.550;8.822;2023-02-18T12:52:18;13.40;99.90
8420;DHT22;4247;48.550;8.822;2023-02-18T12:54:58;13.40;99.90
8420;DHT22;4247;48.550;8.822;2023-02-18T12:57:37;13.50;99.90
8420;DHT22;4247;48.550;8.822;2023-02-18T13:00:30;13.40;99.90
8420;DHT22;4247;48.550;8.822;2023-02-18T13:05:59;13.40;99.90
8420;DHT22;4247;48.550;8.822;2023-02-18T13:08:48;13.40;99.90
8420;DHT22;4247;48.550;8.822;2023-02-18T13:11:34;13.30;99.90
8420;DHT22;4247;48.550;8.822;2023-02-18T13:14:09;13.40;99.90
8420;DHT22;4247;48.550;8.822;2023-02-18T13:16:40;13.30;99.90
8420;DHT22;4247;48.550;8.822;2023-02-18T13:19:18;13.30;99.90
8420;DHT22;4247;48.550;8.822;2023-02-18T13:21:47;13.30;99.90
8420;DHT22;4247;48.550;8.822;2023-02-18T13:24:23;13.40;99.90
8420;DHT22;4247;48.550;8.822;2023-02-18T13:26:55;13.40;99.90
8420;DHT22;4247;48.550;8.822;2023-02-18T13:29:28;13.40;99.90
8420;DHT22;4247;48.550;8.822;2023-02-18T13:32:03;13.30;99.90
8420;DHT22;4247;48.550;8.822;2023-02-18T13:34:39;13.40;99.90
8420;DHT22;4247;48.550;8.822;2023-02-18T13:37:17;13.40;99.90
8420;DHT22;4247;48.550;8.822;2023-02-18T13:39:51;13.40;99.90
8420;DHT22;4247;48.550;8.822;2023-02-18T13:42:34;13.50;99.90
8420;DHT22;4247;48.550;8.822;2023-02-18T13:48:00;13.50;99.90
8420;DHT22;4247;48.550;8.822;2023-02-18T13:50:40;13.50;99.90
8420;DHT22;4247;48.550;8.822;2023-02-18T13:53:31;13.50;99.90
8420;DHT22;4247;48.550;8.822;2023-02-18T13:56:06;13.50;99.90
8420;DHT22;4247;48.550;8.822;2023-02-18T13:58:41;13.60;99.90
8420;DHT22;4247;48.550;8.822;2023-02-18T14:01:21;13.60;99.90
8420;DHT22;4247;48.550;8.822;2023-02-18T14:03:52;13.60;99.90
8420;DHT22;4247;48.550;8.822;2023-02-18T14:06:21;13.60;99.90
8420;DHT22;4247;48.550;8.822;2023-02-18T14:08:49;13.50;99.90
8420;DHT22;4247;48.550;8.822;2023-02-18T14:11:47;13.50;99.90
8420;DHT22;4247;48.550;8.822;2023-02-18T14:14:35;13.50;99.90
8420;DHT22;4247;48.550;8.822;2023-02-18T14:17:34;13.40;99.90
8420;DHT22;4247;48.550;8.822;2023-02-18T14:20:32;13.30;99.90
8420;DHT22;4247;48.550;8.822;2023-02-18T14:26:05;13.30;99.90
8420;DHT22;4247;48.550;8.822;2023-02-18T14:28:39;13.30;99.90
8420;DHT22;4247;48.550;8.822;2023-02-18T14:38:00;13.20;99.90
8420;DHT22;4247;48.550;8.822;2023-02-18T14:40:51;13.10;99.90
8420;DHT22;4247;48.550;8.822;2023-02-18T14:46:21;13.10;99.90
8420;DHT22;4247;48.550;8.822;2023-02-18T14:49:20;13.00;99.90
8420;DHT22;4247;48.550;8.822;2023-02-18T14:51:51;13.00;99.90
8420;DHT22;4247;48.550;8.822;2023-02-18T14:54:20;13.00;99.90
8420;DHT22;4247;48.550;8.822;2023-02-18T14:56:55;13.00;99.90
8420;DHT22;4247;48.550;8.822;2023-02-18T14:59:25;13.00;99.90
8420;DHT22;4247;48.550;8.822;2023-02-18T15:01:58;13.00;99.90
8420;DHT22;4247;48.550;8.822;2023-02-18T15:04:28;13.10;99.90
8420;DHT22;4247;48.550;8.822;2023-02-18T15:07:01;13.00;99.90
8420;DHT22;4247;48.550;8.822;2023-02-18T15:09:28;13.00;99.90
8420;DHT22;4247;48.550;8.822;2023-02-18T15:11:58;13.00;99.90
8420;DHT22;4247;48.550;8.822;2023-02-18T15:14:29;12.90;99.90
8420;DHT22;4247;48.550;8.822;2023-02-18T15:17:01;12.90;99.90
8420;DHT22;4247;48.550;8.822;2023-02-18T15:19:36;12.90;99.90
8420;DHT22;4247;48.550;8.822;2023-02-18T15:22:04;12.90;99.90
8420;DHT22;4247;48.550;8.822;2023-02-18T15:24:32;12.80;99.90
8420;DHT22;4247;48.550;8.822;2023-02-18T15:27:01;12.80;99.90
8420;DHT22;4247;48.550;8.822;2023-02-18T15:29:37;12.90;99.90
8420;DHT22;4247;48.550;8.822;2023-02-18T15:32:15;12.80;99.90
8420;DHT22;4247;48.550;8.822;2023-02-18T15:34:44;12.80;99.90
8420;DHT22;4247;48.550;8.822;2023-02-18T15:37:12;12.80;99.90
8420;DHT22;4247;48.550;8.822;2023-02-18T15:39:41;12.80;99.90
8420;DHT22;4247;48.550;8.822;2023-02-18T15:42:18;12.80;99.90
8420;DHT22;4247;48.550;8.822;2023-02-18T15:44:50;12.70;99.90
8420;DHT22;4247;48.550;8.822;2023-02-18T15:47:26;12.70;99.90
8420;DHT22;4247;48.550;8.822;2023-02-18T15:49:57;12.60;99.90
8420;DHT22;4247;48.550;8.822;2023-02-18T15:52:26;12.60;99.90
8420;DHT22;4247;48.550;8.822;2023-02-18T15:54:56;12.50;99.90
8420;DHT22;4247;48.550;8.822;2023-02-18T15:57:29;12.50;99.90
8420;DHT22;4247;48.550;8.822;2023-02-18T16:00:03;12.40;99.90
8420;DHT22;4247;48.550;8.822;2023-02-18T16:02:33;12.40;99.90
8420;DHT22;4247;48.550;8.822;2023-02-18T16:05:01;12.30;99.90
8420;DHT22;4247;48.550;8.822;2023-02-18T16:07:30;12.20;99.90
8420;DHT22;4247;48.550;8.822;2023-02-18T16:10:08;12.20;99.90
8420;DHT22;4247;48.550;8.822;2023-02-18T16:12:36;12.10;99.90
8420;DHT22;4247;48.550;8.822;2023-02-18T16:15:05;12.10;99.90
8420;DHT22;4247;48.550;8.822;2023-02-18T16:17:37;12.10;99.90
8420;DHT22;4247;48.550;8.822;2023-02-18T16:20:16;12.00;99.90
8420;DHT22;4247;48.550;8.822;2023-02-18T16:22:50;12.00;99.90
8420;DHT22;4247;48.550;8.822;2023-02-18T16:25:21;11.90;99.90
8420;DHT22;4247;48.550;8.822;2023-02-18T16:27:51;11.90;99.90
8420;DHT22;4247;48.550;8.822;2023-02-18T16:30:22;12.00;99.90
8420;DHT22;4247;48.550;8.822;2023-02-18T16:32:54;11.90;99.90
8420;DHT22;4247;48.550;8.822;2023-02-18T16:35:27;11.90;99.90
8420;DHT22;4247;48.550;8.822;2023-02-18T16:37:57;11.90;99.90
8420;DHT22;4247;48.550;8.822;2023-02-18T16:40:28;11.80;99.90
8420;DHT22;4247;48.550;8.822;2023-02-18T16:42:59;11.90;99.90
8420;DHT22;4247;48.550;8.822;2023-02-18T16:45:37;11.80;99.90
8420;DHT22;4247;48.550;8.822;2023-02-18T16:48:14;11.80;99.90
8420;DHT22;4247;48.550;8.822;2023-02-18T16:50:45;11.80;99.90
8420;DHT22;4247;48.550;8.822;2023-02-18T16:53:12;11.80;99.90
8420;DHT22;4247;48.550;8.822;2023-02-18T16:55:51;11.80;99.90
8420;DHT22;4247;48.550;8.822;2023-02-18T16:58:18;11.80;99.90
8420;DHT22;4247;48.550;8.822;2023-02-18T17:00:48;11.80;99.90
8420;DHT22;4247;48.550;8.822;2023-02-18T17:03:19;11.80;99.90
8420;DHT22;4247;48.550;8.822;2023-02-18T17:05:46;11.70;99.90
8420;DHT22;4247;48.550;8.822;2023-02-18T17:08:17;11.70;99.90
8420;DHT22;4247;48.550;8.822;2023-02-18T17:10:46;11.70;99.90
8420;DHT22;4247;48.550;8.822;2023-02-18T17:13:14;11.70;99.90
8420;DHT22;4247;48.550;8.822;2023-02-18T17:15:42;11.70;99.90